Roanoke Regional Woodrum Field
KROA : now visible

Airfield :











YOU CAN JOIN US ON...

 
LOGIN :

Register | Disclaimer

   EN    FR    IT 

 









Legend :    VFR   Marginal VFR   IFR   Intensive IFR   Very Intensive IFR
Visi :
Ceiling :
>= 8 km
>= 3000ft
5 to 8 km
1000 to 3000 ft
1500m to 5 km
500 to 1000 ft
800 to 1500m
200 to 500 ft
< 800m
< 200 ft
Symbols :   Thunderstorms  Fog  Heavy snow  Heavy precipitations  Wind > 20 kt






- Airport Elevation : 1175 ft
- IATA code : ROA


KROA - Roanoke Regional Woodrum Field

CURRENT METAR :
  • 232354Z 12005KT 10SM CLR 22/15 A3009 RMK AO2 SLP181 T02170150 10267 20211 53000

EXPIRED METARs :
  • 232254Z 13007KT 10SM FEW055 23/14 A3007 RMK AO2 SLP174 T02280144
  • 232154Z 15009KT 10SM FEW055 24/14 A3007 RMK AO2 SLP175 T02440144

TAF KROA
Valid from the 24 at 00:00 until the 25 at 00:00 UTC


232340Z 2400/2424 13006KT P6SM FEW080
FM240700 VRB03KT P6SM SCT080 BKN250
FM241400 27004KT P6SM SCT035 BKN080 OVC150
FM242000 31007KT P6SM BKN040 OVC080
KZDC FIR / North America



MET'MAP, your aeronautical weather chart ! - Copyright ORBIFLY December 2007 - Disclaimer

ORBIFLY MET'MAP TEAM :

Programming & Development : Alexandra Zaïnal
Concept & original design : Baudouin d'Aumeries
Assistance for programming : Marc-Olivier Méhu
Technical & hardware support : Manuel Goepfert

Contact : metmap@orbifly.com




SOURCES & CREDITS :

   NOAA       Earth
Advisory